createdAt,value
2023-09-01T00:01:34.821Z,0.90
2023-09-01T00:04:24.068Z,0.90
2023-09-01T00:06:51.001Z,0.85
2023-09-01T00:09:17.918Z,0.85
2023-09-01T00:11:44.915Z,0.80
2023-09-01T00:14:11.782Z,0.70
2023-09-01T00:16:38.609Z,0.80
2023-09-01T00:19:11.635Z,0.68
2023-09-01T00:21:38.403Z,0.70
2023-09-01T00:24:05.313Z,0.80
2023-09-01T00:26:32.122Z,0.85
2023-09-01T00:28:59.062Z,0.75
2023-09-01T00:31:26.257Z,0.88
2023-09-01T00:33:52.989Z,0.70
2023-09-01T00:36:19.761Z,0.70
2023-09-01T00:38:46.526Z,0.85
2023-09-01T00:41:13.505Z,0.90
2023-09-01T00:43:40.332Z,1.00
2023-09-01T00:46:07.473Z,0.73
2023-09-01T00:48:34.416Z,0.90
2023-09-01T00:51:02.074Z,0.80
2023-09-01T00:53:29.842Z,0.80
2023-09-01T00:55:59.622Z,1.00
2023-09-01T00:58:26.934Z,0.60
2023-09-01T01:00:54.298Z,0.90
2023-09-01T01:03:23.175Z,0.75
2023-09-01T01:06:13.027Z,0.80
2023-09-01T01:09:12.031Z,0.80
2023-09-01T01:12:00.020Z,0.95
2023-09-01T01:14:48.431Z,0.80
2023-09-01T01:17:20.809Z,0.98
2023-09-01T01:19:54.815Z,0.80
2023-09-01T01:22:40.229Z,0.90
2023-09-01T01:25:13.514Z,0.90
2023-09-01T01:27:43.644Z,0.80
2023-09-01T01:30:17.307Z,1.60
2023-09-01T01:32:45.458Z,1.20
2023-09-01T01:35:21.338Z,1.10
2023-09-01T01:38:11.451Z,0.95
2023-09-01T01:40:39.778Z,1.00
2023-09-01T01:43:08.697Z,0.90
2023-09-01T01:45:36.624Z,0.82
2023-09-01T01:48:03.974Z,1.20
2023-09-01T01:50:33.633Z,1.52
2023-09-01T01:53:00.722Z,1.30
2023-09-01T01:55:27.636Z,1.10
2023-09-01T01:57:54.431Z,1.10
2023-09-01T02:00:22.885Z,0.98
2023-09-01T02:02:49.810Z,1.20
2023-09-01T02:05:16.880Z,0.90
2023-09-01T02:07:43.824Z,1.00
2023-09-01T02:10:10.780Z,0.88
2023-09-01T02:12:37.830Z,0.82
2023-09-01T02:15:09.885Z,1.00
2023-09-01T02:17:38.075Z,0.90
2023-09-01T02:20:17.816Z,1.50
2023-09-01T02:22:46.549Z,1.50
2023-09-01T02:25:13.540Z,2.45
2023-09-01T02:27:42.604Z,1.67
2023-09-01T02:30:10.999Z,1.90
2023-09-01T02:32:39.023Z,2.13
2023-09-01T02:35:07.373Z,2.13
2023-09-01T02:37:34.406Z,2.08
2023-09-01T02:40:18.959Z,2.40
2023-09-01T02:42:45.729Z,2.30
2023-09-01T02:45:14.387Z,2.65
2023-09-01T02:47:41.769Z,2.03
2023-09-01T02:50:09.388Z,2.00
2023-09-01T02:52:36.362Z,1.98
2023-09-01T02:55:04.319Z,1.63
2023-09-01T02:57:31.105Z,1.52
2023-09-01T02:59:58.046Z,1.60
2023-09-01T03:02:25.240Z,2.15
2023-09-01T03:04:53.452Z,2.50
2023-09-01T03:07:20.653Z,1.95
2023-09-01T03:09:47.508Z,1.90
2023-09-01T03:12:15.317Z,2.45
2023-09-01T03:14:43.909Z,2.28
2023-09-01T03:17:10.703Z,1.83
2023-09-01T03:19:37.757Z,2.40
2023-09-01T03:22:05.363Z,1.77
2023-09-01T03:24:32.334Z,2.08
2023-09-01T03:26:59.159Z,1.90
2023-09-01T03:29:25.937Z,1.88
2023-09-01T03:31:53.569Z,1.65
2023-09-01T03:34:22.406Z,1.40
2023-09-01T03:36:49.790Z,1.90
2023-09-01T03:39:16.650Z,1.90
2023-09-01T03:41:43.629Z,1.85
2023-09-01T03:44:10.467Z,1.90
2023-09-01T03:46:37.374Z,1.83
2023-09-01T03:49:04.312Z,1.50
2023-09-01T03:51:31.158Z,1.80
2023-09-01T03:53:58.014Z,1.75
2023-09-01T03:56:25.854Z,1.52
2023-09-01T03:58:52.691Z,1.77
2023-09-01T04:01:19.660Z,1.52
2023-09-01T04:03:48.957Z,1.60
2023-09-01T04:06:15.902Z,1.58
2023-09-01T04:08:43.560Z,1.40
2023-09-01T04:11:10.449Z,1.20
2023-09-01T04:13:38.662Z,1.40
2023-09-01T04:16:05.900Z,1.17
2023-09-01T04:18:33.501Z,1.42
2023-09-01T04:21:00.481Z,1.40
2023-09-01T04:23:28.150Z,1.27
2023-09-01T04:25:55.522Z,1.25
2023-09-01T04:28:25.723Z,1.23
2023-09-01T04:30:52.583Z,1.10
2023-09-01T04:33:19.630Z,1.38
2023-09-01T04:36:04.913Z,1.30
2023-09-01T04:38:32.855Z,1.08
2023-09-01T04:41:01.261Z,1.00
2023-09-01T04:43:30.058Z,1.40
2023-09-01T04:45:58.847Z,1.10
2023-09-01T04:48:28.206Z,1.10
2023-09-01T04:50:55.614Z,1.67
2023-09-01T04:53:24.043Z,1.20
2023-09-01T04:55:52.411Z,1.10
2023-09-01T04:58:19.253Z,1.30
2023-09-01T05:00:46.144Z,1.20
2023-09-01T05:03:13.097Z,1.40
2023-09-01T05:05:41.004Z,1.30
2023-09-01T05:08:08.004Z,1.23
2023-09-01T05:10:34.858Z,1.25
2023-09-01T05:13:01.747Z,1.38
2023-09-01T05:15:29.550Z,1.27
2023-09-01T05:17:56.515Z,1.30
2023-09-01T05:20:23.542Z,0.98
2023-09-01T05:22:50.481Z,1.38
2023-09-01T05:25:17.965Z,1.52
2023-09-01T05:27:45.556Z,1.73
2023-09-01T05:30:13.819Z,1.58
2023-09-01T05:32:40.832Z,1.38
2023-09-01T05:35:08.346Z,1.33
2023-09-01T05:37:35.209Z,1.30
2023-09-01T05:40:03.097Z,1.35
2023-09-01T05:42:30.931Z,1.20
2023-09-01T05:44:57.686Z,1.25
2023-09-01T05:47:24.869Z,1.33
2023-09-01T05:49:51.764Z,1.27
2023-09-01T05:52:18.508Z,1.42
2023-09-01T05:54:45.409Z,1.40
2023-09-01T05:57:12.179Z,1.70
2023-09-01T05:59:39.068Z,1.58
2023-09-01T06:02:06.425Z,1.42
2023-09-01T06:04:33.308Z,1.30
2023-09-01T06:07:00.226Z,0.98
2023-09-01T06:09:26.973Z,1.15
2023-09-01T06:11:53.887Z,1.00
2023-09-01T06:14:20.662Z,0.82
2023-09-01T06:16:53.413Z,0.90
2023-09-01T06:19:20.212Z,0.80
2023-09-01T06:21:47.024Z,1.00
2023-09-01T06:24:14.038Z,0.95
2023-09-01T06:26:40.884Z,1.10
2023-09-01T06:29:07.800Z,0.90
2023-09-01T06:31:34.744Z,0.90
2023-09-01T06:34:01.764Z,1.10
2023-09-01T06:36:28.616Z,1.20
2023-09-01T06:38:55.451Z,1.05
2023-09-01T06:41:22.254Z,1.02
2023-09-01T06:43:49.019Z,1.05
2023-09-01T06:46:16.078Z,0.88
2023-09-01T06:48:44.544Z,0.90
2023-09-01T06:51:11.523Z,1.00
2023-09-01T06:53:38.314Z,1.05
2023-09-01T06:56:05.346Z,1.02
2023-09-01T06:58:32.131Z,1.10
2023-09-01T07:01:07.858Z,1.00
2023-09-01T07:03:34.780Z,1.20
2023-09-01T07:06:01.643Z,1.58
2023-09-01T07:08:30.409Z,1.80
2023-09-01T07:11:02.240Z,1.58
2023-09-01T07:13:29.154Z,1.83
2023-09-01T07:15:59.094Z,1.50
2023-09-01T07:18:27.018Z,1.80
2023-09-01T07:20:59.272Z,1.50
2023-09-01T07:23:26.843Z,1.83
2023-09-01T07:25:54.584Z,1.58
2023-09-01T07:28:21.961Z,1.63
2023-09-01T07:30:49.525Z,1.50
2023-09-01T07:33:17.028Z,1.77
2023-09-01T07:35:51.280Z,1.73
2023-09-01T07:38:18.677Z,1.65
2023-09-01T07:40:45.953Z,1.90
2023-09-01T07:43:13.383Z,1.90
2023-09-01T07:45:40.888Z,1.65
2023-09-01T07:48:20.899Z,1.40
2023-09-01T07:50:50.508Z,1.70
2023-09-01T07:53:17.261Z,1.67
2023-09-01T07:55:44.229Z,1.40
2023-09-01T07:58:11.067Z,1.20
2023-09-01T08:00:40.376Z,1.77
2023-09-01T08:03:11.956Z,1.30
2023-09-01T08:05:39.963Z,1.60
2023-09-01T08:08:07.284Z,1.40
2023-09-01T08:10:34.255Z,1.30
2023-09-01T08:13:01.443Z,0.90
2023-09-01T08:15:28.719Z,0.90
2023-09-01T08:17:56.133Z,1.30
2023-09-01T08:20:23.573Z,1.10
2023-09-01T08:22:50.751Z,1.35
2023-09-01T08:25:17.926Z,1.52
2023-09-01T08:27:45.419Z,1.20
2023-09-01T08:30:12.595Z,1.20
2023-09-01T08:32:43.961Z,1.15
2023-09-01T08:35:12.673Z,0.85
2023-09-01T08:37:40.237Z,0.90
2023-09-01T08:40:10.659Z,1.00
2023-09-01T08:42:44.839Z,1.23
2023-09-01T08:45:12.697Z,1.10
2023-09-01T08:47:45.686Z,1.10
2023-09-01T08:50:14.093Z,1.20
2023-09-01T08:52:46.115Z,1.02
2023-09-01T08:55:18.581Z,1.23
2023-09-01T08:57:49.061Z,1.00
2023-09-01T09:00:17.908Z,1.10
2023-09-01T09:03:00.660Z,0.95
2023-09-01T09:05:34.502Z,0.90
2023-09-01T09:08:04.600Z,0.95
2023-09-01T09:10:35.816Z,1.02
2023-09-01T09:13:23.793Z,0.73
2023-09-01T09:16:09.471Z,0.90
2023-09-01T09:18:37.779Z,0.90
2023-09-01T09:21:05.176Z,0.77
2023-09-01T09:23:45.356Z,1.10
2023-09-01T09:26:13.046Z,0.90
2023-09-01T09:28:40.595Z,0.63
2023-09-01T09:31:08.468Z,0.75
2023-09-01T09:33:36.997Z,0.80
2023-09-01T09:36:05.033Z,0.73
2023-09-01T09:38:43.310Z,0.88
2023-09-01T09:41:10.420Z,1.00
2023-09-01T09:44:03.644Z,0.80
2023-09-01T09:46:42.563Z,0.80
2023-09-01T09:49:11.783Z,0.80
2023-09-01T09:51:40.801Z,0.98
2023-09-01T09:54:12.550Z,0.80
2023-09-01T09:56:41.826Z,0.88
2023-09-01T09:59:13.530Z,0.80
2023-09-01T10:01:42.849Z,0.60
2023-09-01T10:04:12.465Z,0.55
2023-09-01T10:06:41.017Z,0.50
2023-09-01T10:09:10.533Z,0.80
2023-09-01T10:11:37.768Z,0.70
2023-09-01T10:14:05.658Z,0.60
2023-09-01T10:16:33.144Z,0.70
2023-09-01T10:19:00.549Z,0.70
2023-09-01T10:21:27.486Z,0.80
2023-09-01T10:23:54.539Z,0.60
2023-09-01T10:26:26.403Z,1.00
2023-09-01T10:28:55.409Z,0.70
2023-09-01T10:31:22.502Z,0.95
2023-09-01T10:34:03.157Z,0.65
2023-09-01T10:36:30.067Z,0.60
2023-09-01T10:39:20.446Z,0.70
2023-09-01T10:41:51.427Z,0.68
2023-09-01T10:44:18.273Z,0.93
2023-09-01T10:46:45.136Z,0.95
2023-09-01T10:49:13.306Z,0.80
2023-09-01T10:51:42.852Z,1.08
2023-09-01T10:54:15.719Z,1.02
2023-09-01T10:56:56.534Z,0.80
2023-09-01T10:59:36.164Z,0.80
2023-09-01T11:02:22.742Z,0.90
2023-09-01T11:04:50.287Z,0.90
2023-09-01T11:07:17.161Z,0.98
2023-09-01T11:09:43.894Z,0.95
2023-09-01T11:12:13.124Z,0.73
2023-09-01T11:15:01.554Z,0.60
2023-09-01T11:17:42.389Z,0.80
2023-09-01T11:20:11.351Z,1.20
2023-09-01T11:22:39.496Z,1.00
2023-09-01T11:25:16.688Z,0.80
2023-09-01T11:27:45.125Z,0.70
2023-09-01T11:30:12.258Z,1.00
2023-09-01T11:32:39.328Z,1.30
2023-09-01T11:35:06.675Z,1.38
2023-09-01T11:37:42.570Z,1.10
2023-09-01T11:40:13.893Z,1.23
2023-09-01T11:42:44.693Z,1.00
2023-09-01T11:45:12.236Z,1.20
2023-09-01T11:47:39.208Z,1.05
2023-09-01T11:50:06.884Z,1.50
2023-09-01T11:52:53.972Z,1.13
2023-09-01T11:55:31.819Z,1.10
2023-09-01T11:57:59.201Z,1.20
2023-09-01T12:00:33.717Z,1.20
2023-09-01T12:03:01.689Z,1.45
2023-09-01T12:05:33.470Z,0.98
2023-09-01T12:08:02.772Z,0.80
2023-09-01T12:10:30.598Z,0.90
2023-09-01T12:13:14.110Z,0.70
2023-09-01T12:15:59.771Z,0.80
2023-09-01T12:18:33.629Z,1.10
2023-09-01T12:21:02.119Z,0.90
2023-09-01T12:23:34.179Z,0.73
2023-09-01T12:26:02.406Z,0.80
2023-09-01T12:28:31.053Z,0.60
2023-09-01T12:30:58.867Z,0.80
2023-09-01T12:33:25.858Z,0.90
2023-09-01T12:35:53.811Z,0.70
2023-09-01T12:38:21.222Z,0.70
2023-09-01T12:40:48.404Z,0.90
2023-09-01T12:43:15.611Z,0.75
2023-09-01T12:45:43.153Z,0.75
2023-09-01T12:48:10.803Z,0.88
2023-09-01T12:50:37.785Z,0.85
2023-09-01T12:53:04.871Z,0.90
2023-09-01T12:55:36.126Z,0.80
2023-09-01T12:58:03.622Z,1.00
2023-09-01T13:00:30.361Z,0.70
2023-09-01T13:02:57.371Z,0.60
2023-09-01T13:05:24.817Z,0.70
2023-09-01T13:07:51.810Z,0.80
2023-09-01T13:10:20.269Z,0.65
2023-09-01T13:12:47.091Z,0.65
2023-09-01T13:15:15.217Z,1.10
2023-09-01T13:17:43.151Z,0.80
2023-09-01T13:20:10.746Z,1.00
2023-09-01T13:22:38.600Z,0.82
2023-09-01T13:25:10.136Z,0.90
2023-09-01T13:27:37.474Z,0.90
2023-09-01T13:30:04.814Z,1.05
2023-09-01T13:32:31.619Z,0.93
2023-09-01T13:34:58.393Z,1.30
2023-09-01T13:37:26.298Z,1.40
2023-09-01T13:39:58.794Z,1.73
2023-09-01T13:42:27.174Z,1.20
2023-09-01T13:44:59.310Z,1.30
2023-09-01T13:47:27.029Z,1.25
2023-09-01T13:49:55.066Z,1.40
2023-09-01T13:52:23.497Z,1.10
2023-09-01T13:54:52.027Z,1.17
2023-09-01T13:57:19.475Z,1.35
2023-09-01T13:59:46.699Z,1.20
2023-09-01T14:02:14.002Z,1.10
2023-09-01T14:04:40.947Z,1.20
2023-09-01T14:07:07.805Z,1.10
2023-09-01T14:09:34.867Z,1.30
2023-09-01T14:12:03.769Z,1.33
2023-09-01T14:14:31.136Z,1.10
2023-09-01T14:16:58.125Z,0.98
2023-09-01T14:19:25.218Z,1.00
2023-09-01T14:21:52.171Z,0.88
2023-09-01T14:24:18.943Z,1.10
2023-09-01T14:26:49.033Z,1.13
2023-09-01T14:29:15.867Z,1.50
2023-09-01T14:31:42.773Z,1.35
2023-09-01T14:34:13.831Z,1.48
2023-09-01T14:36:43.885Z,1.58
2023-09-01T14:39:11.033Z,1.58
2023-09-01T14:41:38.177Z,1.73
2023-09-01T14:44:05.294Z,1.60
2023-09-01T14:46:34.379Z,1.60
2023-09-01T14:49:04.425Z,1.80
2023-09-01T14:51:31.718Z,1.65
2023-09-01T14:53:58.642Z,1.98
2023-09-01T14:56:25.430Z,1.70
2023-09-01T14:58:54.400Z,1.30
2023-09-01T15:01:23.894Z,1.38
2023-09-01T15:03:51.108Z,1.20
2023-09-01T15:06:18.654Z,1.40
2023-09-01T15:08:45.608Z,1.40
2023-09-01T15:11:12.416Z,1.30
2023-09-01T15:13:39.231Z,1.20
2023-09-01T15:16:06.490Z,1.20
2023-09-01T15:18:33.491Z,0.90
2023-09-01T15:21:08.218Z,0.80
2023-09-01T15:23:36.158Z,1.00
2023-09-01T15:26:03.458Z,0.90
2023-09-01T15:28:31.784Z,1.00
2023-09-01T15:30:59.349Z,0.80
2023-09-01T15:33:29.432Z,0.73
2023-09-01T15:35:58.365Z,0.77
2023-09-01T15:38:31.810Z,0.90
2023-09-01T15:41:02.222Z,1.05
2023-09-01T15:43:29.913Z,0.90
2023-09-01T15:45:59.792Z,1.10
2023-09-01T15:48:30.318Z,1.30
2023-09-01T15:51:01.515Z,1.00
2023-09-01T15:53:31.454Z,1.02
2023-09-01T15:55:59.952Z,1.00
2023-09-01T15:58:26.818Z,1.10
2023-09-01T16:01:09.866Z,1.17
2023-09-01T16:03:52.475Z,1.10
2023-09-01T16:06:20.959Z,0.95
2023-09-01T16:08:48.005Z,0.98
2023-09-01T16:11:14.827Z,1.00
2023-09-01T16:13:41.773Z,1.20
2023-09-01T16:16:08.788Z,1.20
2023-09-01T16:18:35.614Z,1.00
2023-09-01T16:21:05.358Z,0.90
2023-09-01T16:23:32.351Z,1.15
2023-09-01T16:25:59.319Z,1.00
2023-09-01T16:28:26.284Z,0.80
2023-09-01T16:30:53.580Z,0.90
2023-09-01T16:33:20.522Z,1.00
2023-09-01T16:35:58.705Z,1.00
2023-09-01T16:38:26.129Z,0.90
2023-09-01T16:40:53.755Z,1.00
2023-09-01T16:43:22.341Z,1.00
2023-09-01T16:45:57.572Z,0.90
2023-09-01T16:48:24.677Z,1.00
2023-09-01T16:50:51.908Z,0.70
2023-09-01T16:53:19.267Z,0.90
2023-09-01T16:55:46.673Z,0.98
2023-09-01T16:58:17.031Z,1.05
2023-09-01T17:00:45.884Z,1.00
2023-09-01T17:03:12.971Z,0.82
2023-09-01T17:05:40.105Z,1.05
2023-09-01T17:08:06.866Z,1.13
2023-09-01T17:10:33.949Z,1.00
2023-09-01T17:13:01.191Z,0.93
2023-09-01T17:15:28.195Z,0.90
2023-09-01T17:17:56.452Z,0.90
2023-09-01T17:20:29.302Z,1.15
2023-09-01T17:22:57.827Z,0.90
2023-09-01T17:25:25.243Z,1.10
2023-09-01T17:27:52.085Z,1.00
2023-09-01T17:30:19.624Z,1.10
2023-09-01T17:32:46.497Z,0.80
2023-09-01T17:35:13.264Z,0.90
2023-09-01T17:37:40.176Z,1.20
2023-09-01T17:40:07.653Z,1.02
2023-09-01T17:42:34.655Z,1.15
2023-09-01T17:45:01.542Z,1.15
2023-09-01T17:47:28.504Z,0.90
2023-09-01T17:49:55.279Z,0.90
2023-09-01T17:52:22.364Z,0.90
2023-09-01T17:54:49.169Z,0.80
2023-09-01T17:57:16.045Z,0.90
2023-09-01T17:59:42.901Z,0.85
2023-09-01T18:02:11.889Z,0.90
2023-09-01T18:04:38.804Z,1.15
2023-09-01T18:07:07.961Z,0.80
2023-09-01T18:09:36.340Z,0.73
2023-09-01T18:12:03.849Z,1.10
2023-09-01T18:14:30.687Z,0.80
2023-09-01T18:16:58.060Z,0.70
2023-09-01T18:19:24.852Z,0.88
2023-09-01T18:21:52.200Z,0.80
2023-09-01T18:24:26.767Z,1.00
2023-09-01T18:29:26.591Z,0.80
2023-09-01T18:31:56.973Z,0.80
2023-09-01T18:34:25.366Z,1.00
2023-09-01T18:36:55.842Z,0.68
2023-09-01T18:39:26.777Z,0.80
2023-09-01T18:41:56.151Z,0.90
2023-09-01T18:44:23.401Z,1.08
2023-09-01T18:46:50.485Z,1.00
2023-09-01T18:49:17.907Z,0.90
2023-09-01T18:51:54.443Z,0.82
2023-09-01T18:54:26.825Z,1.00
2023-09-01T18:56:59.517Z,0.90
2023-09-01T18:59:27.277Z,0.90
2023-09-01T19:01:54.226Z,0.90
2023-09-01T19:04:21.216Z,1.10
2023-09-01T19:06:48.842Z,0.90
2023-09-01T19:09:17.945Z,0.88
2023-09-01T19:11:49.114Z,0.82
2023-09-01T19:14:19.490Z,0.93
2023-09-01T19:16:52.588Z,0.77
2023-09-01T19:19:19.874Z,0.68
2023-09-01T19:22:01.904Z,0.57
2023-09-01T19:24:31.180Z,0.70
2023-09-01T19:26:59.219Z,0.60
2023-09-01T19:29:26.303Z,0.80
2023-09-01T19:31:53.598Z,0.57
2023-09-01T19:34:26.498Z,0.60
2023-09-01T19:36:53.742Z,0.68
2023-09-01T19:39:28.542Z,0.55
2023-09-01T19:41:55.394Z,0.60
2023-09-01T19:44:22.832Z,0.75
2023-09-01T19:46:49.801Z,0.50
2023-09-01T19:49:19.016Z,0.60
2023-09-01T19:51:46.616Z,0.47
2023-09-01T19:54:19.743Z,0.55
2023-09-01T19:56:46.860Z,0.50
2023-09-01T19:59:13.705Z,0.50
2023-09-01T20:01:42.304Z,0.60
2023-09-01T20:04:16.465Z,0.60
2023-09-01T20:09:16.199Z,0.60
2023-09-01T20:11:43.822Z,0.50
2023-09-01T20:14:12.306Z,0.70
2023-09-01T20:16:41.689Z,0.50
2023-09-01T20:19:12.784Z,0.60
2023-09-01T20:21:39.630Z,0.65
2023-09-01T20:24:07.244Z,0.50
2023-09-01T20:26:34.117Z,0.60
2023-09-01T20:29:00.912Z,0.65
2023-09-01T20:31:27.691Z,0.70
2023-09-01T20:33:54.525Z,0.80
2023-09-01T20:36:22.746Z,0.65
2023-09-01T20:38:49.641Z,0.70
2023-09-01T20:41:16.503Z,0.63
2023-09-01T20:43:43.451Z,0.68
2023-09-01T20:46:10.300Z,0.68
2023-09-01T20:48:38.825Z,0.60
2023-09-01T20:51:05.986Z,0.60
2023-09-01T20:53:33.009Z,0.50
2023-09-01T20:56:03.913Z,0.63
2023-09-01T20:58:31.038Z,0.50
2023-09-01T21:00:58.347Z,0.63
2023-09-01T21:03:25.111Z,0.60
2023-09-01T21:05:52.200Z,0.52
2023-09-01T21:08:18.980Z,0.45
2023-09-01T21:10:45.880Z,0.60
2023-09-01T21:13:12.794Z,0.50
2023-09-01T21:15:39.623Z,0.60
2023-09-01T21:18:06.855Z,0.50
2023-09-01T21:20:36.355Z,0.60
2023-09-01T21:23:03.428Z,0.70
2023-09-01T21:25:30.240Z,0.65
2023-09-01T21:27:57.941Z,0.70
2023-09-01T21:30:25.101Z,0.55
2023-09-01T21:32:52.199Z,0.60
2023-09-01T21:35:19.058Z,0.63
2023-09-01T21:37:45.825Z,0.60
2023-09-01T21:40:12.845Z,0.60
2023-09-01T21:42:40.233Z,0.73
2023-09-01T21:45:07.660Z,0.60
2023-09-01T21:47:34.890Z,0.60
2023-09-01T21:50:02.058Z,0.60
2023-09-01T21:52:29.022Z,0.52
2023-09-01T21:54:55.949Z,0.60
2023-09-01T21:57:22.737Z,0.57
2023-09-01T21:59:50.266Z,0.60
2023-09-01T22:02:17.226Z,0.60
2023-09-01T22:04:44.326Z,0.60
2023-09-01T22:07:11.145Z,0.70
2023-09-01T22:09:38.156Z,0.57
2023-09-01T22:12:05.439Z,0.60
2023-09-01T22:14:32.441Z,0.70
2023-09-01T22:16:59.821Z,0.60
2023-09-01T22:19:31.381Z,0.50
2023-09-01T22:21:59.133Z,0.50
2023-09-01T22:24:32.331Z,0.50
2023-09-01T22:27:00.068Z,0.95
2023-09-01T22:29:28.262Z,1.00
2023-09-01T22:31:57.253Z,1.00
2023-09-01T22:34:24.163Z,0.90
2023-09-01T22:36:51.383Z,0.82
2023-09-01T22:39:18.184Z,1.00
2023-09-01T22:41:44.968Z,0.60
2023-09-01T22:44:11.880Z,0.80
2023-09-01T22:46:38.677Z,0.88
2023-09-01T22:49:05.523Z,0.80
2023-09-01T22:51:32.327Z,0.60
2023-09-01T22:54:01.999Z,0.60
2023-09-01T22:56:29.987Z,0.70
2023-09-01T22:58:56.961Z,0.70
2023-09-01T23:01:23.817Z,0.60
2023-09-01T23:03:50.726Z,0.60
2023-09-01T23:06:17.638Z,0.55
2023-09-01T23:08:44.628Z,0.60
2023-09-01T23:11:16.305Z,5.07
2023-09-01T23:13:43.141Z,3.85
2023-09-01T23:16:09.981Z,1.90
2023-09-01T23:18:36.777Z,1.50
2023-09-01T23:21:03.811Z,1.00
2023-09-01T23:23:30.601Z,0.90
2023-09-01T23:25:57.639Z,0.85
2023-09-01T23:28:24.592Z,0.68
2023-09-01T23:30:51.681Z,0.60
2023-09-01T23:33:18.684Z,0.60
2023-09-01T23:35:45.675Z,0.60
2023-09-01T23:38:12.589Z,0.60
2023-09-01T23:40:39.894Z,0.50
2023-09-01T23:43:06.769Z,0.47
2023-09-01T23:45:33.605Z,0.50
2023-09-01T23:48:00.451Z,0.50
2023-09-01T23:50:27.697Z,0.50
2023-09-01T23:52:54.524Z,0.50
2023-09-01T23:55:21.328Z,0.70
2023-09-01T23:57:48.155Z,0.60
